Terminal Aerodrome Forecast
Issued by NWS Wilmington, OH

Current Version | Previous Version | Text Only | Print | Product List | Glossary Off
Versions: 1 2 3 4 5 6 7 8 9 10 11 12 13 14 15 16 17 18 19

000
FTUS41 KILN 172300
TAFCMH
TAF
KCMH 172334Z 1800/1824 17005KT P6SM VCSH BKN035 OVC080
     FM180600 09003KT 5SM BR OVC035
     FM180900 05003KT 4SM BR OVC025
     FM181400 05005KT 5SM HZ OVC028
     FM181700 01005KT P6SM VCSH BKN035=

USA.gov is the U.S. government's official web portal to all federal, state and local government web resources and services.